Terminal Aerodrome Forecast
Issued by NWS Jackson, MS

Home | Current Version | Previous Version | Text Only | Print | Product List | Glossary On
Versions: 1 2 3 4 5 6 7 8 9 10 11 12 13 14 15
000
FTUS44 KJAN 301349 AAA
TAFMEI
TAF AMD
KMEI 301349Z 3014/0112 VRB04KT 1SM TSRA BR BKN020 BKN035CB OVC050
     FM301500 25015G21KT P6SM TSRA SCT025 OVC040CB
     FM301800 22013KT P6SM -TSRA BKN050CB
     FM302300 25007KT P6SM SCT060 BKN250=

USA.gov is the U.S. government's official web portal to all federal, state and local government web resources and services.